sim
Sign-in with your pilot id or email,
or register
Callsign
Passwort

Schedule Details

Flight Number: DLH2134 (2)
Departure: Munich Airport (EDDM) at 06:10
Arrival: Munster Osnabruck International -?Airport (EDDG) at 07:25
Route: Lufthansa Passenger Schedule. Enter filed route here before submitting Pirep.

Weather Information
Getting current METAR information for EDDM 261950Z 24017KT 9999 -RA BKN022 BKN035 07/04 Q1001 NOSIG
Getting current METAR information for EDDG 261950Z 26008KT 5000 -RA BR FEW005 SCT009 BKN013 11/10 Q0996 RERA TEMPO 4000 RA

Schedule Frequency

Route Map